createdAt,value
2022-08-23T00:00:12.911Z,5.03
2022-08-23T00:02:43.337Z,5.40
2022-08-23T00:05:12.929Z,4.97
2022-08-23T00:07:45.607Z,5.18
2022-08-23T00:10:17.324Z,5.30
2022-08-23T00:12:46.521Z,5.50
2022-08-23T00:15:18.144Z,5.88
2022-08-23T00:17:46.316Z,5.95
2022-08-23T00:20:16.885Z,6.20
2022-08-23T00:22:46.520Z,6.63
2022-08-23T00:25:16.680Z,6.00
2022-08-23T00:27:45.350Z,6.47
2022-08-23T00:30:14.680Z,5.47
2022-08-23T00:32:43.822Z,6.13
2022-08-23T00:35:22.261Z,6.20
2022-08-23T00:38:32.097Z,5.95
2022-08-23T00:40:46.979Z,6.30
2022-08-23T00:43:35.119Z,6.70
2022-08-23T00:46:28.480Z,6.60
2022-08-23T00:48:59.094Z,6.60
2022-08-23T00:51:32.051Z,6.60
2022-08-23T00:54:13.871Z,6.88
2022-08-23T00:56:42.941Z,6.10
2022-08-23T00:59:13.312Z,6.22
2022-08-23T01:01:43.743Z,5.45
2022-08-23T01:04:14.040Z,5.70
2022-08-23T01:06:49.812Z,5.38
2022-08-23T01:09:22.250Z,5.38
2022-08-23T01:11:54.543Z,4.82
2022-08-23T01:14:29.659Z,4.88
2022-08-23T01:17:03.513Z,4.80
2022-08-23T01:22:19.475Z,4.80
2022-08-23T01:25:07.111Z,5.57
2022-08-23T01:27:40.239Z,5.50
2022-08-23T01:30:12.756Z,5.00
2022-08-23T01:32:46.939Z,5.22
2022-08-23T01:35:16.880Z,5.45
2022-08-23T01:37:46.152Z,4.53
2022-08-23T01:40:16.235Z,5.68
2022-08-23T01:42:45.234Z,4.97
2022-08-23T01:45:15.684Z,5.63
2022-08-23T01:47:44.542Z,6.15
2022-08-23T01:50:14.080Z,7.40
2022-08-23T01:52:46.850Z,6.53
2022-08-23T01:55:18.928Z,5.55
2022-08-23T01:57:51.506Z,6.47
2022-08-23T02:00:22.589Z,6.05
2022-08-23T02:02:51.289Z,6.60
2022-08-23T02:05:20.050Z,6.13
2022-08-23T02:07:48.918Z,6.70
2022-08-23T02:10:20.683Z,6.55
2022-08-23T02:12:50.835Z,7.05
2022-08-23T02:15:19.313Z,7.13
2022-08-23T02:17:48.777Z,7.15
2022-08-23T02:20:17.055Z,7.60
2022-08-23T02:22:45.267Z,7.22
2022-08-23T02:25:13.669Z,7.40
2022-08-23T02:27:44.262Z,8.05
2022-08-23T02:30:15.282Z,8.10
2022-08-23T02:32:44.347Z,8.23
2022-08-23T02:35:13.772Z,8.45
2022-08-23T02:37:41.915Z,8.90
2022-08-23T02:40:11.507Z,8.50
2022-08-23T02:42:39.893Z,8.20
2022-08-23T02:45:10.837Z,9.55
2022-08-23T02:47:45.718Z,8.68
2022-08-23T02:50:21.327Z,8.43
2022-08-23T02:52:49.638Z,7.75
2022-08-23T02:55:18.594Z,7.95
2022-08-23T02:57:46.709Z,9.45
2022-08-23T03:00:18.413Z,8.52
2022-08-23T03:02:47.253Z,7.72
2022-08-23T03:05:16.210Z,8.52
2022-08-23T03:07:44.861Z,8.40
2022-08-23T03:10:14.950Z,8.48
2022-08-23T03:12:48.526Z,9.55
2022-08-23T03:15:18.214Z,10.00
2022-08-23T03:17:46.387Z,9.88
2022-08-23T03:20:14.598Z,9.20
2022-08-23T03:22:49.646Z,9.93
2022-08-23T03:25:25.246Z,9.65
2022-08-23T03:28:16.792Z,9.38
2022-08-23T03:30:47.719Z,9.13
2022-08-23T03:33:16.303Z,9.60
2022-08-23T03:35:47.293Z,9.05
2022-08-23T03:38:16.348Z,10.27
2022-08-23T03:40:47.930Z,10.50
2022-08-23T03:43:17.479Z,10.88
2022-08-23T03:45:47.422Z,12.40
2022-08-23T03:48:17.820Z,11.93
2022-08-23T03:50:47.589Z,12.55
2022-08-23T03:53:16.289Z,12.30
2022-08-23T03:55:50.549Z,12.40
2022-08-23T03:58:21.614Z,12.57
2022-08-23T04:00:51.965Z,11.88
2022-08-23T04:03:20.477Z,12.40
2022-08-23T04:05:58.852Z,12.80
2022-08-23T04:08:33.288Z,12.57
2022-08-23T04:11:06.419Z,13.55
2022-08-23T04:13:42.408Z,14.15
2022-08-23T04:16:13.865Z,13.32
2022-08-23T04:18:42.971Z,12.75
2022-08-23T04:21:18.264Z,12.90
2022-08-23T04:23:47.194Z,13.93
2022-08-23T04:26:15.851Z,13.07
2022-08-23T04:28:48.773Z,12.20
2022-08-23T04:31:19.714Z,11.63
2022-08-23T04:33:52.489Z,11.82
2022-08-23T04:36:28.036Z,12.00
2022-08-23T04:39:21.735Z,11.60
2022-08-23T04:42:11.086Z,11.80
2022-08-23T04:44:41.993Z,10.57
2022-08-23T04:47:11.859Z,10.45
2022-08-23T04:49:42.653Z,10.90
2022-08-23T04:52:16.149Z,11.30
2022-08-23T04:54:48.191Z,12.63
2022-08-23T04:57:42.889Z,13.85
2022-08-23T05:00:16.418Z,13.32
2022-08-23T05:02:53.201Z,11.57
2022-08-23T05:05:22.184Z,12.48
2022-08-23T05:07:51.468Z,12.63
2022-08-23T05:10:20.287Z,13.65
2022-08-23T05:12:52.637Z,12.40
2022-08-23T05:15:22.651Z,12.57
2022-08-23T05:18:01.795Z,12.68
2022-08-23T05:20:31.382Z,12.98
2022-08-23T05:23:02.345Z,13.35
2022-08-23T05:25:47.396Z,12.07
2022-08-23T05:28:17.089Z,11.70
2022-08-23T05:30:56.323Z,12.38
2022-08-23T05:33:27.128Z,12.90
2022-08-23T05:35:56.055Z,12.98
2022-08-23T05:38:25.072Z,12.15
2022-08-23T05:40:57.350Z,13.48
2022-08-23T05:43:28.185Z,13.85
2022-08-23T05:46:04.518Z,13.45
2022-08-23T05:48:38.326Z,13.52
2022-08-23T05:51:11.912Z,13.27
2022-08-23T05:53:40.617Z,15.32
2022-08-23T05:56:14.419Z,16.05
2022-08-23T05:58:43.716Z,19.55
2022-08-23T06:01:14.190Z,15.40
2022-08-23T06:03:45.146Z,18.75
2022-08-23T06:06:14.905Z,17.77
2022-08-23T06:08:46.967Z,15.88
2022-08-23T06:11:18.081Z,18.70
2022-08-23T06:13:51.634Z,18.40
2022-08-23T06:16:24.770Z,18.27
2022-08-23T06:18:56.125Z,18.50
2022-08-23T06:21:45.207Z,20.45
2022-08-23T06:24:14.481Z,21.42
2022-08-23T06:27:01.425Z,18.10
2022-08-23T06:29:29.772Z,16.65
2022-08-23T06:32:16.919Z,17.10
2022-08-23T06:35:33.330Z,18.48
2022-08-23T06:38:04.348Z,18.08
2022-08-23T06:41:02.087Z,16.55
2022-08-23T06:43:53.722Z,16.30
2022-08-23T06:46:34.228Z,17.35
2022-08-23T06:49:07.028Z,17.08
2022-08-23T06:51:39.264Z,17.13
2022-08-23T06:54:21.955Z,15.02
2022-08-23T06:56:51.259Z,15.95
2022-08-23T06:59:28.635Z,16.17
2022-08-23T07:02:15.726Z,15.57
2022-08-23T07:04:58.880Z,17.38
2022-08-23T07:07:55.117Z,19.30
2022-08-23T07:10:23.584Z,18.70
2022-08-23T07:12:52.436Z,17.20
2022-08-23T07:15:22.166Z,18.67
2022-08-23T07:17:50.498Z,18.15
2022-08-23T07:20:19.343Z,16.10
2022-08-23T07:22:47.640Z,15.13
2022-08-23T07:25:17.408Z,15.73
2022-08-23T07:27:49.409Z,13.57
2022-08-23T07:30:21.507Z,13.93
2022-08-23T07:32:51.907Z,14.27
2022-08-23T07:35:24.530Z,14.23
2022-08-23T07:37:57.326Z,13.50
2022-08-23T07:40:38.832Z,14.02
2022-08-23T07:43:08.095Z,11.88
2022-08-23T07:45:37.698Z,14.20
2022-08-23T07:48:07.184Z,13.15
2022-08-23T07:50:54.758Z,13.18
2022-08-23T07:53:37.823Z,13.63
2022-08-23T07:56:11.123Z,12.93
2022-08-23T07:58:59.238Z,14.13
2022-08-23T08:01:57.219Z,14.05
2022-08-23T08:04:26.790Z,13.07
2022-08-23T08:07:17.540Z,13.35
2022-08-23T08:09:47.285Z,13.80
2022-08-23T08:12:18.441Z,13.73
2022-08-23T08:14:49.330Z,13.68
2022-08-23T08:17:21.333Z,14.25
2022-08-23T08:20:12.789Z,14.55
2022-08-23T08:23:00.538Z,12.25
2022-08-23T08:25:31.070Z,11.77
2022-08-23T08:28:02.242Z,11.43
2022-08-23T08:30:30.719Z,12.13
2022-08-23T08:32:59.570Z,12.02
2022-08-23T08:35:27.826Z,12.68
2022-08-23T08:37:56.474Z,20.10
2022-08-23T08:40:32.567Z,21.45
2022-08-23T08:43:15.332Z,14.88
2022-08-23T08:45:58.703Z,11.15
2022-08-23T08:48:30.631Z,11.95
2022-08-23T08:51:04.900Z,13.77
2022-08-23T08:53:39.493Z,13.65
2022-08-23T08:56:20.962Z,12.38
2022-08-23T08:59:00.166Z,11.68
2022-08-23T09:01:31.128Z,12.00
2022-08-23T09:03:59.865Z,11.07
2022-08-23T09:06:35.579Z,10.23
2022-08-23T09:09:35.367Z,11.45
2022-08-23T09:12:16.155Z,10.88
2022-08-23T09:15:04.349Z,10.13
2022-08-23T09:17:43.920Z,8.32
2022-08-23T09:20:15.105Z,7.82
2022-08-23T09:22:51.318Z,10.40
2022-08-23T09:25:32.698Z,9.73
2022-08-23T09:28:17.304Z,11.25
2022-08-23T09:30:57.892Z,10.18
2022-08-23T09:33:38.440Z,10.13
2022-08-23T09:36:16.033Z,9.25
2022-08-23T09:38:55.884Z,9.02
2022-08-23T09:41:28.483Z,17.50
2022-08-23T09:44:02.138Z,8.43
2022-08-23T09:46:35.846Z,10.07
2022-08-23T09:49:25.104Z,7.88
2022-08-23T09:51:57.954Z,6.70
2022-08-23T09:54:36.657Z,7.57
2022-08-23T09:57:14.416Z,7.75
2022-08-23T09:59:46.240Z,8.73
2022-08-23T10:02:27.927Z,7.20
2022-08-23T10:05:01.833Z,8.00
2022-08-23T10:07:38.358Z,6.82
2022-08-23T10:10:23.348Z,8.25
2022-08-23T10:12:54.428Z,7.55
2022-08-23T10:15:42.192Z,7.72
2022-08-23T10:18:23.706Z,7.75
2022-08-23T10:21:01.601Z,7.47
2022-08-23T10:23:41.020Z,7.15
2022-08-23T10:26:16.141Z,7.78
2022-08-23T10:29:08.255Z,7.28
2022-08-23T10:31:41.649Z,12.07
2022-08-23T10:34:50.663Z,9.35
2022-08-23T10:37:44.509Z,6.95
2022-08-23T10:40:20.220Z,5.72
2022-08-23T10:43:02.609Z,5.35
2022-08-23T10:45:33.744Z,6.30
2022-08-23T10:48:21.440Z,5.05
2022-08-23T10:50:56.383Z,5.18
2022-08-23T10:53:34.256Z,4.57
2022-08-23T10:56:06.170Z,4.38
2022-08-23T10:58:47.468Z,4.10
2022-08-23T11:01:20.775Z,4.28
2022-08-23T11:03:59.045Z,4.47
2022-08-23T11:06:45.797Z,4.50
2022-08-23T11:09:48.013Z,5.30
2022-08-23T11:12:28.922Z,4.60
2022-08-23T11:15:19.309Z,4.95
2022-08-23T11:17:59.683Z,4.05
2022-08-23T11:21:15.136Z,4.80
2022-08-23T11:23:54.314Z,6.10
2022-08-23T11:27:06.783Z,5.25
2022-08-23T11:29:43.460Z,8.32
2022-08-23T11:32:43.823Z,4.70
2022-08-23T11:35:43.005Z,4.38
2022-08-23T11:38:13.098Z,5.10
2022-08-23T11:41:21.926Z,4.10
2022-08-23T11:44:13.988Z,3.67
2022-08-23T11:46:59.610Z,3.80
2022-08-23T11:49:58.720Z,3.80
2022-08-23T11:52:39.144Z,3.50
2022-08-23T11:55:39.855Z,3.60
2022-08-23T11:58:24.646Z,4.20
2022-08-23T12:01:07.824Z,4.35
2022-08-23T12:03:44.675Z,4.13
2022-08-23T12:06:50.445Z,4.50
2022-08-23T12:09:52.251Z,4.70
2022-08-23T12:12:46.999Z,12.55
2022-08-23T12:15:18.182Z,4.57
2022-08-23T12:18:08.042Z,4.93
2022-08-23T12:20:38.840Z,5.35
2022-08-23T12:23:14.871Z,5.78
2022-08-23T12:25:43.859Z,5.57
2022-08-23T12:28:31.457Z,6.10
2022-08-23T12:31:08.215Z,5.43
2022-08-23T12:33:52.131Z,5.45
2022-08-23T12:36:25.827Z,6.07
2022-08-23T12:39:01.849Z,5.93
2022-08-23T12:41:32.055Z,5.72
2022-08-23T12:44:03.553Z,5.60
2022-08-23T12:46:39.554Z,5.03
2022-08-23T12:49:13.506Z,5.20
2022-08-23T12:51:50.780Z,8.07
2022-08-23T12:54:22.570Z,6.93
2022-08-23T12:56:53.642Z,5.80
2022-08-23T12:59:44.915Z,6.25
2022-08-23T13:02:27.308Z,4.82
2022-08-23T13:04:59.868Z,5.68
2022-08-23T13:07:28.419Z,5.90
2022-08-23T13:09:57.749Z,5.80
2022-08-23T13:12:28.179Z,5.55
2022-08-23T13:15:01.391Z,5.40
2022-08-23T13:20:22.153Z,5.82
2022-08-23T13:23:01.607Z,5.82
2022-08-23T13:25:33.273Z,5.68
2022-08-23T13:28:03.842Z,5.40
2022-08-23T13:30:33.987Z,5.32
2022-08-23T13:33:23.449Z,6.53
2022-08-23T13:36:06.252Z,5.93
2022-08-23T13:38:43.931Z,5.00
2022-08-23T13:41:27.659Z,4.88
2022-08-23T13:43:56.161Z,5.28
2022-08-23T13:46:26.529Z,8.98
2022-08-23T13:49:01.272Z,5.35
2022-08-23T13:51:36.966Z,5.20
2022-08-23T13:54:08.322Z,4.50
2022-08-23T13:56:39.356Z,5.13
2022-08-23T13:59:20.144Z,5.20
2022-08-23T14:01:48.682Z,4.68
2022-08-23T14:04:18.282Z,4.85
2022-08-23T14:06:48.905Z,4.38
2022-08-23T14:09:18.107Z,4.45
2022-08-23T14:13:04.751Z,4.90
2022-08-23T14:18:21.178Z,4.18
2022-08-23T14:20:51.218Z,4.78
2022-08-23T14:23:20.020Z,4.30
2022-08-23T14:25:49.867Z,5.10
2022-08-23T14:28:19.846Z,5.05
2022-08-23T14:30:48.566Z,4.68
2022-08-23T14:33:16.751Z,6.43
2022-08-23T14:35:45.128Z,5.20
2022-08-23T14:38:15.367Z,6.47
2022-08-23T14:40:51.444Z,5.60
2022-08-23T14:43:22.307Z,5.22
2022-08-23T14:45:54.234Z,5.78
2022-08-23T14:48:23.269Z,5.57
2022-08-23T14:50:51.690Z,7.05
2022-08-23T14:53:22.686Z,7.90
2022-08-23T14:56:12.350Z,5.80
2022-08-23T14:58:43.060Z,5.88
2022-08-23T15:01:12.560Z,5.80
2022-08-23T15:03:42.290Z,5.95
2022-08-23T15:06:10.951Z,5.70
2022-08-23T15:08:39.426Z,5.72
2022-08-23T15:14:00.414Z,5.97
2022-08-23T15:16:29.335Z,7.15
2022-08-23T15:18:58.083Z,8.45
2022-08-23T15:21:26.236Z,7.72
2022-08-23T15:23:54.696Z,6.03
2022-08-23T15:26:25.246Z,6.65
2022-08-23T15:28:54.081Z,6.13
2022-08-23T15:31:24.009Z,6.55
2022-08-23T15:33:52.285Z,5.88
2022-08-23T15:36:20.524Z,6.20
2022-08-23T15:38:49.847Z,5.95
2022-08-23T15:41:19.888Z,6.60
2022-08-23T15:43:48.584Z,6.10
2022-08-23T15:46:20.775Z,5.40
2022-08-23T15:48:55.108Z,6.10
2022-08-23T15:51:23.299Z,6.20
2022-08-23T15:53:51.664Z,5.97
2022-08-23T15:56:23.032Z,6.28
2022-08-23T15:58:51.284Z,6.63
2022-08-23T16:01:24.296Z,6.05
2022-08-23T16:03:54.201Z,5.47
2022-08-23T16:06:22.477Z,5.68
2022-08-23T16:08:53.441Z,6.00
2022-08-23T16:11:22.000Z,11.23
2022-08-23T16:13:51.638Z,6.07
2022-08-23T16:16:26.360Z,5.85
2022-08-23T16:18:58.030Z,6.07
2022-08-23T16:21:28.968Z,6.07
2022-08-23T16:23:58.198Z,6.03
2022-08-23T16:26:34.535Z,5.72
2022-08-23T16:29:05.547Z,6.00
2022-08-23T16:31:38.638Z,5.63
2022-08-23T16:34:11.541Z,5.60
2022-08-23T16:36:42.331Z,6.03
2022-08-23T16:39:12.728Z,5.55
2022-08-23T16:41:40.854Z,5.70
2022-08-23T16:44:09.460Z,5.93
2022-08-23T16:46:41.226Z,5.88
2022-08-23T16:49:11.576Z,5.45
2022-08-23T16:51:39.798Z,6.00
2022-08-23T16:54:08.444Z,5.65
2022-08-23T16:56:38.607Z,5.47
2022-08-23T16:59:09.368Z,5.28
2022-08-23T17:01:46.136Z,5.47
2022-08-23T17:04:16.848Z,5.70
2022-08-23T17:06:46.190Z,5.68
2022-08-23T17:09:15.676Z,5.50
2022-08-23T17:11:45.688Z,5.85
2022-08-23T17:14:14.537Z,6.03
2022-08-23T17:16:44.218Z,5.90
2022-08-23T17:19:13.177Z,5.85
2022-08-23T17:21:43.626Z,5.30
2022-08-23T17:24:11.828Z,6.75
2022-08-23T17:26:40.033Z,5.60
2022-08-23T17:29:09.411Z,5.65
2022-08-23T17:31:38.331Z,5.82
2022-08-23T17:34:07.648Z,5.95
2022-08-23T17:36:39.583Z,5.50
2022-08-23T17:39:12.268Z,5.85
2022-08-23T17:41:45.015Z,5.85
2022-08-23T17:44:14.742Z,5.38
2022-08-23T17:46:45.156Z,5.53
2022-08-23T17:49:14.691Z,5.35
2022-08-23T17:51:43.211Z,4.93
2022-08-23T17:54:15.935Z,5.57
2022-08-23T17:56:49.993Z,5.50
2022-08-23T17:59:19.693Z,5.63
2022-08-23T18:01:48.061Z,5.97
2022-08-23T18:04:16.447Z,4.85
2022-08-23T18:06:44.986Z,5.28
2022-08-23T18:09:14.970Z,5.07
2022-08-23T18:11:43.104Z,4.78
2022-08-23T18:14:13.295Z,4.65
2022-08-23T18:16:43.964Z,5.28
2022-08-23T18:19:14.084Z,5.10
2022-08-23T18:21:43.303Z,4.97
2022-08-23T18:24:12.119Z,4.65
2022-08-23T18:27:00.561Z,4.40
2022-08-23T18:29:29.934Z,5.00
2022-08-23T18:31:58.119Z,4.53
2022-08-23T18:34:26.285Z,4.68
2022-08-23T18:36:54.744Z,4.57
2022-08-23T18:39:31.224Z,4.72
2022-08-23T18:42:02.970Z,4.30
2022-08-23T18:44:31.739Z,4.80
2022-08-23T18:46:59.898Z,4.18
2022-08-23T18:49:27.999Z,4.30
2022-08-23T18:51:56.666Z,4.25
2022-08-23T18:54:24.780Z,4.53
2022-08-23T18:56:53.065Z,4.20
2022-08-23T18:59:22.552Z,4.13
2022-08-23T19:01:51.322Z,4.00
2022-08-23T19:04:20.062Z,4.18
2022-08-23T19:06:49.360Z,4.30
2022-08-23T19:09:22.753Z,4.05
2022-08-23T19:11:51.250Z,3.92
2022-08-23T19:14:19.540Z,4.13
2022-08-23T19:16:49.074Z,3.95
2022-08-23T19:19:18.759Z,3.95
2022-08-23T19:21:47.009Z,3.80
2022-08-23T19:24:15.174Z,3.90
2022-08-23T19:26:47.580Z,4.38
2022-08-23T19:29:16.221Z,3.95
2022-08-23T19:31:47.936Z,4.40
2022-08-23T19:34:20.518Z,4.47
2022-08-23T19:36:58.085Z,4.50
2022-08-23T19:39:29.736Z,4.53
2022-08-23T19:41:58.540Z,4.18
2022-08-23T19:44:26.680Z,3.92
2022-08-23T19:46:56.343Z,4.40
2022-08-23T19:49:25.930Z,4.35
2022-08-23T19:52:07.779Z,3.90
2022-08-23T19:54:39.757Z,4.00
2022-08-23T19:57:10.213Z,4.07
2022-08-23T20:02:33.672Z,4.53
2022-08-23T20:05:03.332Z,3.70
2022-08-23T20:07:31.500Z,4.15
2022-08-23T20:09:59.776Z,9.73
2022-08-23T20:12:29.133Z,4.78
2022-08-23T20:14:57.514Z,4.18
2022-08-23T20:17:25.678Z,4.13
2022-08-23T20:19:54.362Z,3.83
2022-08-23T20:22:41.487Z,4.35
2022-08-23T20:25:10.379Z,4.72
2022-08-23T20:27:39.312Z,4.25
2022-08-23T20:30:10.274Z,4.80
2022-08-23T20:32:39.438Z,4.57
2022-08-23T20:35:11.420Z,4.38
2022-08-23T20:37:41.175Z,4.38
2022-08-23T20:40:11.878Z,4.60
2022-08-23T20:42:40.375Z,4.57
2022-08-23T20:45:09.768Z,4.22
2022-08-23T20:47:37.883Z,4.38
2022-08-23T20:50:06.682Z,4.60
2022-08-23T20:52:35.058Z,4.55
2022-08-23T20:55:10.540Z,6.53
2022-08-23T20:57:39.121Z,4.60
2022-08-23T21:00:08.867Z,4.88
2022-08-23T21:02:37.040Z,4.40
2022-08-23T21:05:06.678Z,5.13
2022-08-23T21:07:36.969Z,4.68
2022-08-23T21:10:07.641Z,4.43
2022-08-23T21:12:37.257Z,4.43
2022-08-23T21:15:10.309Z,5.00
2022-08-23T21:20:08.104Z,4.25
2022-08-23T21:22:36.248Z,4.75
2022-08-23T21:25:07.127Z,4.07
2022-08-23T21:27:35.368Z,4.07
2022-08-23T21:30:03.909Z,4.20
2022-08-23T21:32:32.033Z,4.18
2022-08-23T21:35:00.790Z,3.85
2022-08-23T21:37:30.073Z,4.53
2022-08-23T21:39:58.210Z,4.30
2022-08-23T21:42:27.821Z,4.82
2022-08-23T21:44:55.955Z,4.80
2022-08-23T21:47:24.281Z,4.78
2022-08-23T21:49:53.106Z,4.72
2022-08-23T21:52:21.536Z,4.68
2022-08-23T21:54:49.937Z,4.78
2022-08-23T21:57:18.222Z,4.70
2022-08-23T21:59:48.119Z,4.68
2022-08-23T22:02:16.251Z,4.40
2022-08-23T22:04:46.367Z,4.88
2022-08-23T22:07:14.450Z,8.02
2022-08-23T22:09:42.741Z,4.50
2022-08-23T22:12:10.999Z,4.50
2022-08-23T22:14:39.668Z,4.90
2022-08-23T22:17:09.164Z,4.90
2022-08-23T22:19:37.327Z,5.10
2022-08-23T22:22:05.475Z,5.03
2022-08-23T22:24:33.703Z,4.82
2022-08-23T22:27:01.823Z,5.32
2022-08-23T22:29:30.120Z,5.32
2022-08-23T22:31:58.243Z,5.13
2022-08-23T22:34:27.761Z,5.50
2022-08-23T22:36:56.224Z,4.97
2022-08-23T22:39:26.039Z,5.07
2022-08-23T22:41:54.304Z,4.90
2022-08-23T22:44:22.772Z,5.22
2022-08-23T22:46:50.909Z,5.38
2022-08-23T22:49:19.038Z,5.80
2022-08-23T22:51:49.169Z,5.63
2022-08-23T22:54:24.739Z,5.38
2022-08-23T22:56:54.076Z,6.13
2022-08-23T22:59:27.480Z,5.65
2022-08-23T23:01:58.716Z,5.80
2022-08-23T23:04:28.149Z,5.97
2022-08-23T23:06:58.355Z,5.80
2022-08-23T23:09:26.930Z,6.20
2022-08-23T23:11:56.275Z,6.25
2022-08-23T23:14:24.660Z,5.65
2022-08-23T23:16:53.339Z,6.40
2022-08-23T23:19:39.203Z,5.93
2022-08-23T23:22:10.188Z,6.50
2022-08-23T23:24:40.697Z,6.18
2022-08-23T23:27:10.301Z,6.13
2022-08-23T23:29:38.620Z,6.25
2022-08-23T23:32:07.078Z,5.90
2022-08-23T23:34:36.543Z,6.63
2022-08-23T23:37:05.096Z,6.78
2022-08-23T23:39:34.751Z,6.70
2022-08-23T23:42:02.937Z,6.22
2022-08-23T23:44:31.915Z,6.50
2022-08-23T23:47:01.344Z,5.70
2022-08-23T23:49:32.202Z,6.40
2022-08-23T23:52:02.275Z,5.70
2022-08-23T23:54:31.487Z,6.40
2022-08-23T23:57:01.100Z,6.35
2022-08-23T23:59:29.534Z,6.38
